createdAt,value
2018-08-20T00:00:43.168Z,19.40
2018-08-20T00:03:11.215Z,19.30
2018-08-20T00:05:41.249Z,19.30
2018-08-20T00:08:09.272Z,19.20
2018-08-20T00:10:37.352Z,19.20
2018-08-20T00:13:05.416Z,19.10
2018-08-20T00:15:33.479Z,19.10
2018-08-20T00:18:01.532Z,19.00
2018-08-20T00:20:29.653Z,19.00
2018-08-20T00:22:57.672Z,18.90
2018-08-20T00:25:25.738Z,18.90
2018-08-20T00:27:53.868Z,18.80
2018-08-20T00:30:21.928Z,18.80
2018-08-20T00:32:50.000Z,18.80
2018-08-20T00:35:19.516Z,18.80
2018-08-20T00:37:51.501Z,18.80
2018-08-20T00:40:20.432Z,18.70
2018-08-20T00:42:48.685Z,18.70
2018-08-20T00:45:16.728Z,18.70
2018-08-20T00:47:44.776Z,18.70
2018-08-20T00:50:12.844Z,18.70
2018-08-20T00:52:41.058Z,18.70
2018-08-20T00:55:11.040Z,18.70
2018-08-20T00:57:39.440Z,18.70
2018-08-20T01:00:08.340Z,18.60
2018-08-20T01:02:36.388Z,18.60
2018-08-20T01:05:04.463Z,18.60
2018-08-20T01:07:32.516Z,18.60
2018-08-20T01:10:00.569Z,18.50
2018-08-20T01:12:28.658Z,18.50
2018-08-20T01:14:56.957Z,18.50
2018-08-20T01:17:25.016Z,18.40
2018-08-20T01:19:53.064Z,18.40
2018-08-20T01:22:21.525Z,18.40
2018-08-20T01:24:49.800Z,18.40
2018-08-20T01:27:22.100Z,18.30
2018-08-20T01:29:50.583Z,18.30
2018-08-20T01:32:18.640Z,18.30
2018-08-20T01:34:46.697Z,18.20
2018-08-20T01:37:15.764Z,18.20
2018-08-20T01:39:44.044Z,18.20
2018-08-20T01:42:12.548Z,18.20
2018-08-20T01:44:40.620Z,18.10
2018-08-20T01:47:08.703Z,18.00
2018-08-20T01:49:36.992Z,17.90
2018-08-20T01:52:06.011Z,17.90
2018-08-20T01:54:34.601Z,17.90
2018-08-20T01:57:02.912Z,17.80
2018-08-20T01:59:31.188Z,17.80
2018-08-20T02:01:59.594Z,17.70
2018-08-20T02:04:27.865Z,17.70
2018-08-20T02:06:55.928Z,17.70
2018-08-20T02:09:24.026Z,17.60
2018-08-20T02:11:52.068Z,17.60
2018-08-20T02:14:20.116Z,17.60
2018-08-20T02:16:48.282Z,17.60
2018-08-20T02:19:16.312Z,17.50
2018-08-20T02:21:44.861Z,17.50
2018-08-20T02:24:12.904Z,17.50
2018-08-20T02:26:40.945Z,17.40
2018-08-20T02:29:09.023Z,17.40
2018-08-20T02:31:37.072Z,17.40
2018-08-20T02:34:05.127Z,17.40
2018-08-20T02:36:33.181Z,17.30
2018-08-20T02:39:01.229Z,17.30
2018-08-20T02:41:29.312Z,17.30
2018-08-20T02:43:57.360Z,17.30
2018-08-20T02:46:37.303Z,17.30
2018-08-20T02:49:05.572Z,17.30
2018-08-20T02:51:33.644Z,17.30
2018-08-20T02:54:01.717Z,17.30
2018-08-20T02:56:29.769Z,17.30
2018-08-20T02:58:57.828Z,17.30
2018-08-20T03:01:25.876Z,17.30
2018-08-20T03:03:53.932Z,17.30
2018-08-20T03:06:21.984Z,17.30
2018-08-20T03:08:50.046Z,17.30
2018-08-20T03:11:18.097Z,17.30
2018-08-20T03:13:46.160Z,17.30
2018-08-20T03:16:14.209Z,17.30
2018-08-20T03:18:42.255Z,17.20
2018-08-20T03:21:10.472Z,17.20
2018-08-20T03:23:38.528Z,17.20
2018-08-20T03:26:06.592Z,17.20
2018-08-20T03:28:34.881Z,17.20
2018-08-20T03:31:02.888Z,17.10
2018-08-20T03:33:31.013Z,17.10
2018-08-20T03:35:59.064Z,17.10
2018-08-20T03:38:27.136Z,17.10
2018-08-20T03:40:55.188Z,17.00
2018-08-20T03:43:23.262Z,17.00
2018-08-20T03:45:51.315Z,17.10
2018-08-20T03:48:19.376Z,17.00
2018-08-20T03:50:47.424Z,17.00
2018-08-20T03:53:15.472Z,17.00
2018-08-20T03:55:43.524Z,17.00
2018-08-20T03:58:11.584Z,17.00
2018-08-20T04:00:39.652Z,17.00
2018-08-20T04:03:07.712Z,17.00
2018-08-20T04:05:35.752Z,17.00
2018-08-20T04:08:03.820Z,16.90
2018-08-20T04:10:31.879Z,16.90
2018-08-20T04:12:59.936Z,16.90
2018-08-20T04:15:27.989Z,16.80
2018-08-20T04:17:56.045Z,16.80
2018-08-20T04:20:24.148Z,16.80
2018-08-20T04:22:52.200Z,16.80
2018-08-20T04:25:20.264Z,16.80
2018-08-20T04:27:48.329Z,16.80
2018-08-20T04:30:16.380Z,16.80
2018-08-20T04:32:44.436Z,16.80
2018-08-20T04:35:12.479Z,16.80
2018-08-20T04:37:40.533Z,16.70
2018-08-20T04:40:08.601Z,16.70
2018-08-20T04:42:36.657Z,16.70
2018-08-20T04:45:05.945Z,16.70
2018-08-20T04:47:34.005Z,16.70
2018-08-20T04:50:02.154Z,16.80
2018-08-20T04:52:30.105Z,16.80
2018-08-20T04:54:58.168Z,16.80
2018-08-20T04:57:26.239Z,16.90
2018-08-20T04:59:54.296Z,17.00
2018-08-20T05:02:22.345Z,17.00
2018-08-20T05:04:50.392Z,17.10
2018-08-20T05:07:18.437Z,17.10
2018-08-20T05:09:46.504Z,17.20
2018-08-20T05:12:14.561Z,17.20
2018-08-20T05:14:42.617Z,17.20
2018-08-20T05:17:10.684Z,17.20
2018-08-20T05:19:38.836Z,17.30
2018-08-20T05:22:06.889Z,17.30
2018-08-20T05:24:34.940Z,17.40
2018-08-20T05:27:02.996Z,17.40
2018-08-20T05:29:31.098Z,17.50
2018-08-20T05:31:59.120Z,17.50
2018-08-20T05:34:27.167Z,17.60
2018-08-20T05:36:55.223Z,17.70
2018-08-20T05:39:23.280Z,17.80
2018-08-20T05:41:51.331Z,17.90
2018-08-20T05:44:19.692Z,18.00
2018-08-20T05:46:47.720Z,18.10
2018-08-20T05:49:15.784Z,18.20
2018-08-20T05:51:43.824Z,18.40
2018-08-20T05:54:11.896Z,18.60
2018-08-20T05:56:39.949Z,18.70
2018-08-20T05:59:08.032Z,18.80
2018-08-20T06:01:36.072Z,19.00
2018-08-20T06:04:04.136Z,19.10
2018-08-20T06:06:32.253Z,19.20
2018-08-20T06:09:00.333Z,19.30
2018-08-20T06:11:28.377Z,19.40
2018-08-20T06:13:56.425Z,19.60
2018-08-20T06:16:24.480Z,19.80
2018-08-20T06:18:52.621Z,20.00
2018-08-20T06:21:20.692Z,20.30
2018-08-20T06:23:48.761Z,20.60
2018-08-20T06:26:16.822Z,20.90
2018-08-20T06:28:44.920Z,21.20
2018-08-20T06:31:12.945Z,21.80
2018-08-20T06:33:40.986Z,22.70
2018-08-20T06:36:09.040Z,23.50
2018-08-20T06:38:37.097Z,24.10
2018-08-20T06:41:05.341Z,24.40
2018-08-20T06:43:33.398Z,24.80
2018-08-20T06:46:01.445Z,25.40
2018-08-20T06:48:29.498Z,25.90
2018-08-20T06:50:57.552Z,26.20
2018-08-20T06:53:25.600Z,26.30
2018-08-20T06:55:53.653Z,26.20
2018-08-20T06:58:28.510Z,26.20
2018-08-20T07:00:56.564Z,26.20
2018-08-20T07:03:24.625Z,26.20
2018-08-20T07:05:52.688Z,26.20
2018-08-20T07:08:20.745Z,26.50
2018-08-20T07:10:49.030Z,27.40
2018-08-20T07:13:35.230Z,28.40
2018-08-20T07:16:03.466Z,29.30
2018-08-20T07:18:31.508Z,30.60
2018-08-20T07:20:59.622Z,31.70
2018-08-20T07:23:28.096Z,32.20
2018-08-20T07:25:56.159Z,32.30
2018-08-20T07:28:24.221Z,32.90
2018-08-20T07:30:52.280Z,33.80
2018-08-20T07:33:20.354Z,34.90
2018-08-20T07:35:48.428Z,35.70
2018-08-20T07:38:16.488Z,35.90
2018-08-20T07:40:44.536Z,36.40
2018-08-20T07:43:12.673Z,36.90
2018-08-20T07:45:40.721Z,37.40
2018-08-20T07:48:08.813Z,38.10
2018-08-20T07:50:36.877Z,38.70
2018-08-20T07:53:05.049Z,38.00
2018-08-20T07:55:33.108Z,37.00
2018-08-20T07:58:01.164Z,36.10
2018-08-20T08:00:29.232Z,35.10
2018-08-20T08:02:57.282Z,34.30
2018-08-20T08:05:25.341Z,33.60
2018-08-20T08:07:53.427Z,33.00
2018-08-20T08:10:21.456Z,32.70
2018-08-20T08:12:49.520Z,32.40
2018-08-20T08:15:17.604Z,32.20
2018-08-20T08:17:46.373Z,31.80
2018-08-20T08:20:15.178Z,31.60
2018-08-20T08:22:43.491Z,31.60
2018-08-20T08:25:11.863Z,31.60
2018-08-20T08:27:39.940Z,31.60
2018-08-20T08:30:15.185Z,31.70
2018-08-20T08:32:43.365Z,31.60
2018-08-20T08:35:12.485Z,31.20
2018-08-20T08:37:40.783Z,30.90
2018-08-20T08:40:10.082Z,30.50
2018-08-20T08:42:38.359Z,30.00
2018-08-20T08:45:08.968Z,29.80
2018-08-20T08:47:37.092Z,29.70
2018-08-20T08:50:05.405Z,29.70
2018-08-20T08:52:33.533Z,29.70
2018-08-20T08:55:01.681Z,29.70
2018-08-20T08:57:29.758Z,29.60
2018-08-20T08:59:57.889Z,29.50
2018-08-20T09:02:25.981Z,29.40
2018-08-20T09:04:54.093Z,29.40
2018-08-20T09:07:22.164Z,29.40
2018-08-20T09:09:50.220Z,29.50
2018-08-20T09:12:18.285Z,29.70
2018-08-20T09:14:46.342Z,29.90
2018-08-20T09:17:14.428Z,30.10
2018-08-20T09:19:42.491Z,30.20
2018-08-20T09:22:10.557Z,30.40
2018-08-20T09:24:38.631Z,30.50
2018-08-20T09:27:06.701Z,30.70
2018-08-20T09:29:34.757Z,31.60
2018-08-20T09:32:02.812Z,33.60
2018-08-20T09:34:30.856Z,35.90
2018-08-20T09:36:58.908Z,38.10
2018-08-20T09:39:26.956Z,39.00
2018-08-20T09:41:55.018Z,39.40
2018-08-20T09:44:23.061Z,39.60
2018-08-20T09:46:51.119Z,40.70
2018-08-20T09:49:19.192Z,41.60
2018-08-20T09:51:47.249Z,42.10
2018-08-20T09:54:15.301Z,42.90
2018-08-20T09:56:43.399Z,43.10
2018-08-20T09:59:11.503Z,43.10
2018-08-20T10:01:39.494Z,43.30
2018-08-20T10:04:07.600Z,43.30
2018-08-20T10:06:35.660Z,42.90
2018-08-20T10:09:04.756Z,42.60
2018-08-20T10:11:32.826Z,42.50
2018-08-20T10:14:00.872Z,41.90
2018-08-20T10:16:28.942Z,42.40
2018-08-20T10:18:56.996Z,43.20
2018-08-20T10:21:25.053Z,42.80
2018-08-20T10:23:53.441Z,42.30
2018-08-20T10:26:21.480Z,40.80
2018-08-20T10:28:49.564Z,40.10
2018-08-20T10:31:17.628Z,40.90
2018-08-20T10:33:45.680Z,41.00
2018-08-20T10:36:13.728Z,40.70
2018-08-20T10:38:41.830Z,40.60
2018-08-20T10:41:09.860Z,39.90
2018-08-20T10:43:37.924Z,39.00
2018-08-20T10:46:11.564Z,38.40
2018-08-20T10:48:39.609Z,38.00
2018-08-20T10:51:07.681Z,38.60
2018-08-20T10:53:35.725Z,39.80
2018-08-20T10:56:03.789Z,40.60
2018-08-20T10:58:31.887Z,40.40
2018-08-20T11:00:59.933Z,40.10
2018-08-20T11:03:27.992Z,39.80
2018-08-20T11:05:56.049Z,39.30
2018-08-20T11:08:24.200Z,38.20
2018-08-20T11:10:52.355Z,37.30
2018-08-20T11:13:20.345Z,36.80
2018-08-20T11:15:48.405Z,36.10
2018-08-20T11:18:16.511Z,35.40
2018-08-20T11:20:44.524Z,35.00
2018-08-20T11:23:12.584Z,34.60
2018-08-20T11:25:40.632Z,34.10
2018-08-20T11:28:08.686Z,33.50
2018-08-20T11:30:36.740Z,32.80
2018-08-20T11:33:04.835Z,32.50
2018-08-20T11:35:32.845Z,32.30
2018-08-20T11:38:00.912Z,32.30
2018-08-20T11:40:28.963Z,32.20
2018-08-20T11:43:03.778Z,32.00
2018-08-20T11:45:31.772Z,31.80
2018-08-20T11:47:59.829Z,31.80
2018-08-20T11:50:27.864Z,32.00
2018-08-20T11:52:55.916Z,32.20
2018-08-20T11:55:23.968Z,32.20
2018-08-20T11:57:52.025Z,32.40
2018-08-20T12:00:20.087Z,32.70
2018-08-20T12:02:48.141Z,32.90
2018-08-20T12:05:16.193Z,33.00
2018-08-20T12:07:44.312Z,33.20
2018-08-20T12:10:12.293Z,33.20
2018-08-20T12:12:40.833Z,33.00
2018-08-20T12:15:10.652Z,32.70
2018-08-20T12:17:38.949Z,32.20
2018-08-20T12:20:07.950Z,32.00
2018-08-20T12:22:36.146Z,31.60
2018-08-20T12:25:04.980Z,31.40
2018-08-20T12:27:33.041Z,31.40
2018-08-20T12:30:01.119Z,31.40
2018-08-20T12:32:29.188Z,31.40
2018-08-20T12:34:57.225Z,31.50
2018-08-20T12:37:25.288Z,31.70
2018-08-20T12:39:53.355Z,31.90
2018-08-20T12:42:21.406Z,32.20
2018-08-20T12:44:49.456Z,32.70
2018-08-20T12:47:17.512Z,33.30
2018-08-20T12:49:45.789Z,33.90
2018-08-20T12:52:13.853Z,34.30
2018-08-20T12:54:41.903Z,34.60
2018-08-20T12:57:09.965Z,34.70
2018-08-20T12:59:38.052Z,34.60
2018-08-20T13:02:06.538Z,34.30
2018-08-20T13:04:34.576Z,34.30
2018-08-20T13:07:02.681Z,34.10
2018-08-20T13:09:30.747Z,34.20
2018-08-20T13:11:58.796Z,34.10
2018-08-20T13:14:26.864Z,34.00
2018-08-20T13:16:54.924Z,34.00
2018-08-20T13:19:23.029Z,34.00
2018-08-20T13:24:25.616Z,33.70
2018-08-20T13:26:53.669Z,33.50
2018-08-20T13:29:21.724Z,33.40
2018-08-20T13:31:49.789Z,33.50
2018-08-20T13:36:52.380Z,33.80
2018-08-20T13:39:20.437Z,33.80
2018-08-20T13:41:48.488Z,33.60
2018-08-20T13:44:16.544Z,33.50
2018-08-20T13:46:44.592Z,33.60
2018-08-20T13:49:12.727Z,33.80
2018-08-20T13:51:40.765Z,33.90
2018-08-20T13:54:08.833Z,34.10
2018-08-20T13:56:36.880Z,34.00
2018-08-20T13:59:05.169Z,34.00
2018-08-20T14:01:33.221Z,34.10
2018-08-20T14:04:01.272Z,34.10
2018-08-20T14:06:29.328Z,34.00
2018-08-20T14:08:57.394Z,34.10
2018-08-20T14:11:25.450Z,34.00
2018-08-20T14:13:53.666Z,33.90
2018-08-20T14:16:21.706Z,33.90
2018-08-20T14:18:49.768Z,33.70
2018-08-20T14:21:17.820Z,33.50
2018-08-20T14:23:47.835Z,33.30
2018-08-20T14:26:15.896Z,33.30
2018-08-20T14:28:44.018Z,33.30
2018-08-20T14:31:12.069Z,33.50
2018-08-20T14:33:40.121Z,33.60
2018-08-20T14:36:08.592Z,33.90
2018-08-20T14:38:36.648Z,34.20
2018-08-20T14:41:05.164Z,34.20
2018-08-20T14:43:33.220Z,34.20
2018-08-20T14:46:06.913Z,34.40
2018-08-20T14:48:34.993Z,34.20
2018-08-20T14:51:03.036Z,34.10
2018-08-20T14:53:31.152Z,34.10
2018-08-20T14:55:59.148Z,34.00
2018-08-20T14:58:27.204Z,33.80
2018-08-20T15:00:55.252Z,33.60
2018-08-20T15:03:23.317Z,33.50
2018-08-20T15:05:51.438Z,33.40
2018-08-20T15:08:19.484Z,33.30
2018-08-20T15:10:47.541Z,33.10
2018-08-20T15:13:15.592Z,33.10
2018-08-20T15:15:43.959Z,33.00
2018-08-20T15:18:11.924Z,32.80
2018-08-20T15:20:40.001Z,32.70
2018-08-20T15:23:08.044Z,32.50
2018-08-20T15:25:36.155Z,32.40
2018-08-20T15:28:04.206Z,32.40
2018-08-20T15:30:32.269Z,32.20
2018-08-20T15:33:00.317Z,32.10
2018-08-20T15:35:28.372Z,32.10
2018-08-20T15:37:56.424Z,32.10
2018-08-20T15:40:24.492Z,32.00
2018-08-20T15:42:52.556Z,31.90
2018-08-20T15:45:20.616Z,32.00
2018-08-20T15:47:48.763Z,32.00
2018-08-20T15:50:16.820Z,32.00
2018-08-20T15:52:44.896Z,31.80
2018-08-20T15:55:13.016Z,31.80
2018-08-20T15:57:41.225Z,31.70
2018-08-20T16:00:10.491Z,31.70
2018-08-20T16:02:38.812Z,31.70
2018-08-20T16:05:06.919Z,31.70
2018-08-20T16:07:34.965Z,31.70
2018-08-20T16:10:03.085Z,31.60
2018-08-20T16:12:31.480Z,31.50
2018-08-20T16:14:59.544Z,31.50
2018-08-20T16:17:27.613Z,31.40
2018-08-20T16:19:55.677Z,31.50
2018-08-20T16:22:23.724Z,31.60
2018-08-20T16:24:51.787Z,31.60
2018-08-20T16:27:19.873Z,31.60
2018-08-20T16:29:47.916Z,31.40
2018-08-20T16:32:16.009Z,31.30
2018-08-20T16:34:44.148Z,31.30
2018-08-20T16:37:12.205Z,31.30
2018-08-20T16:39:40.387Z,31.20
2018-08-20T16:42:08.402Z,31.10
2018-08-20T16:44:36.516Z,31.00
2018-08-20T16:47:04.630Z,30.90
2018-08-20T16:49:32.766Z,30.80
2018-08-20T16:52:00.972Z,30.70
2018-08-20T16:54:29.104Z,30.60
2018-08-20T16:56:57.173Z,30.40
2018-08-20T16:59:25.263Z,30.40
2018-08-20T17:01:53.290Z,30.30
2018-08-20T17:04:30.586Z,30.30
2018-08-20T17:07:00.403Z,30.20
2018-08-20T17:09:28.799Z,30.20
2018-08-20T17:11:57.024Z,30.10
2018-08-20T17:14:25.114Z,29.90
2018-08-20T17:16:53.177Z,29.70
2018-08-20T17:19:21.443Z,29.70
2018-08-20T17:21:49.528Z,29.60
2018-08-20T17:24:30.149Z,29.40
2018-08-20T17:27:00.124Z,29.30
2018-08-20T17:29:28.192Z,29.20
2018-08-20T17:31:56.499Z,29.10
2018-08-20T17:34:24.795Z,28.90
2018-08-20T17:36:53.410Z,28.90
2018-08-20T17:39:21.481Z,28.80
2018-08-20T17:41:49.592Z,28.60
2018-08-20T17:44:20.073Z,28.50
2018-08-20T17:46:48.116Z,28.40
2018-08-20T17:49:20.463Z,28.30
2018-08-20T17:51:49.616Z,28.10
2018-08-20T17:54:17.697Z,27.90
2018-08-20T17:56:45.768Z,27.80
2018-08-20T17:59:13.941Z,27.70
2018-08-20T18:01:41.988Z,27.50
2018-08-20T18:04:10.209Z,27.40
2018-08-20T18:06:45.368Z,27.30
2018-08-20T18:09:13.869Z,27.30
2018-08-20T18:11:47.313Z,27.20
2018-08-20T18:14:15.413Z,27.00
2018-08-20T18:16:43.496Z,26.90
2018-08-20T18:19:11.600Z,26.80
2018-08-20T18:21:39.668Z,26.80
2018-08-20T18:24:14.021Z,26.70
2018-08-20T18:26:42.904Z,26.60
2018-08-20T18:29:11.092Z,26.50
2018-08-20T18:31:39.204Z,26.40
2018-08-20T18:34:07.284Z,26.30
2018-08-20T18:36:35.394Z,26.20
2018-08-20T18:39:09.624Z,26.10
2018-08-20T18:42:10.248Z,26.00
2018-08-20T18:44:38.465Z,25.90
2018-08-20T18:47:07.852Z,25.80
2018-08-20T18:49:44.364Z,25.70
2018-08-20T18:52:13.883Z,25.70
2018-08-20T18:54:46.597Z,25.60
2018-08-20T18:57:17.132Z,25.60
2018-08-20T18:59:45.193Z,25.50
2018-08-20T19:02:31.480Z,25.50
2018-08-20T19:05:01.023Z,25.40
2018-08-20T19:07:29.080Z,25.30
2018-08-20T19:09:57.152Z,25.30
2018-08-20T19:12:25.274Z,25.20
2018-08-20T19:14:53.321Z,25.20
2018-08-20T19:17:26.681Z,25.10
2018-08-20T19:19:54.947Z,25.00
2018-08-20T19:22:26.009Z,25.00
2018-08-20T19:24:54.057Z,24.90
2018-08-20T19:27:22.188Z,24.80
2018-08-20T19:29:50.220Z,24.70
2018-08-20T19:32:18.313Z,24.70
2018-08-20T19:34:46.425Z,24.60
2018-08-20T19:37:14.505Z,24.50
2018-08-20T19:39:42.552Z,24.40
2018-08-20T19:42:14.217Z,24.40
2018-08-20T19:44:42.456Z,24.40
2018-08-20T19:47:10.509Z,24.30
2018-08-20T19:49:38.565Z,24.30
2018-08-20T19:52:06.653Z,24.20
2018-08-20T19:54:34.701Z,24.20
2018-08-20T19:57:02.748Z,24.20
2018-08-20T19:59:36.093Z,24.20
2018-08-20T20:02:04.360Z,24.20
2018-08-20T20:04:32.408Z,24.20
2018-08-20T20:07:00.519Z,24.20
2018-08-20T20:09:28.580Z,24.20
2018-08-20T20:14:36.617Z,24.20
2018-08-20T20:17:04.840Z,24.20
2018-08-20T20:19:32.945Z,24.30
2018-08-20T20:22:01.221Z,24.30
2018-08-20T20:24:29.284Z,24.30
2018-08-20T20:26:57.341Z,24.30
2018-08-20T20:29:25.398Z,24.30
2018-08-20T20:31:53.472Z,24.30
2018-08-20T20:34:21.504Z,24.30
2018-08-20T20:36:49.593Z,24.30
2018-08-20T20:39:17.648Z,24.30
2018-08-20T20:41:45.732Z,24.30
2018-08-20T20:44:13.807Z,24.30
2018-08-20T20:46:41.881Z,24.30
2018-08-20T20:49:09.936Z,24.30
2018-08-20T20:51:38.394Z,24.30
2018-08-20T20:54:06.524Z,24.30
2018-08-20T20:56:34.577Z,24.30
2018-08-20T20:59:02.641Z,24.30
2018-08-20T21:01:30.692Z,24.40
2018-08-20T21:04:01.613Z,24.40
2018-08-20T21:06:29.672Z,24.30
2018-08-20T21:08:58.648Z,24.30
2018-08-20T21:11:26.733Z,24.30
2018-08-20T21:13:55.379Z,24.30
2018-08-20T21:16:24.749Z,24.30
2018-08-20T21:18:54.076Z,24.20
2018-08-20T21:21:22.776Z,24.30
2018-08-20T21:23:50.948Z,24.30
2018-08-20T21:26:18.977Z,24.30
2018-08-20T21:28:48.050Z,24.20
2018-08-20T21:31:17.157Z,24.30
2018-08-20T21:33:45.651Z,24.20
2018-08-20T21:36:14.240Z,24.20
2018-08-20T21:38:42.845Z,24.20
2018-08-20T21:41:11.251Z,24.20
2018-08-20T21:43:44.358Z,24.10
2018-08-20T21:46:13.030Z,24.10
2018-08-20T21:48:41.534Z,24.10
2018-08-20T21:51:14.027Z,24.10
2018-08-20T21:53:42.108Z,24.10
2018-08-20T21:56:11.172Z,24.10
2018-08-20T21:58:40.644Z,24.00
2018-08-20T22:01:10.158Z,24.00
2018-08-20T22:03:38.356Z,24.00
2018-08-20T22:06:06.442Z,23.90
2018-08-20T22:08:41.274Z,23.80
2018-08-20T22:11:10.164Z,23.80
2018-08-20T22:13:38.268Z,23.80
2018-08-20T22:16:15.448Z,23.80
2018-08-20T22:18:44.880Z,23.80
2018-08-20T22:21:15.112Z,23.80
2018-08-20T22:23:43.804Z,23.80
2018-08-20T22:26:16.478Z,23.80
2018-08-20T22:28:44.512Z,23.70
2018-08-20T22:31:12.540Z,23.70
2018-08-20T22:33:40.572Z,23.70
2018-08-20T22:36:10.885Z,23.70
2018-08-20T22:38:44.100Z,23.70
2018-08-20T22:41:12.273Z,23.70
2018-08-20T22:43:40.357Z,23.70
2018-08-20T22:46:08.365Z,23.70
2018-08-20T22:48:36.400Z,23.60
2018-08-20T22:51:12.680Z,23.60
2018-08-20T22:53:44.117Z,23.60
2018-08-20T22:56:16.796Z,23.60
2018-08-20T22:58:44.840Z,23.50
2018-08-20T23:01:12.900Z,23.50
2018-08-20T23:03:41.120Z,23.50
2018-08-20T23:06:09.200Z,23.50
2018-08-20T23:08:37.248Z,23.50
2018-08-20T23:11:05.404Z,23.50
2018-08-20T23:13:33.456Z,23.40
2018-08-20T23:16:01.839Z,23.40
2018-08-20T23:18:30.048Z,23.40
2018-08-20T23:20:58.083Z,23.40
2018-08-20T23:23:32.376Z,23.40
2018-08-20T23:26:05.661Z,23.30
2018-08-20T23:28:34.864Z,23.30
2018-08-20T23:31:03.056Z,23.20
2018-08-20T23:33:32.364Z,23.10
2018-08-20T23:36:00.661Z,23.10
2018-08-20T23:38:29.153Z,23.10
2018-08-20T23:40:57.752Z,23.00
2018-08-20T23:43:25.946Z,23.00
2018-08-20T23:45:54.027Z,23.00
2018-08-20T23:48:22.056Z,22.90
2018-08-20T23:50:56.743Z,22.90
2018-08-20T23:53:33.121Z,22.80
2018-08-20T23:56:01.302Z,22.90
2018-08-20T23:58:29.316Z,22.90
